Terminal Aerodrome Forecast
Issued by NWS

Home | Current Version | Previous Version | Text Only | Print | Product List | Glossary On
Versions: 1 2 3 4 5 6 7 8 9 10 11 12
000
FTUS42 TJSJ 262300 RRA
TAFJBQ
TAF
TJBQ 262341Z 2700/2724 11010KT P6SM SCT060 SCT100
     FM270230 11006KT P6SM FEW025
     FM271330 09015G25KT P6SM FEW025 SCT040
      AMD NOT SKED 2702/2711=

USA.gov is the U.S. government's official web portal to all federal, state and local government web resources and services.